createdAt,value
2022-09-10T00:00:10.334Z,78.99
2022-09-10T00:05:12.215Z,78.98
2022-09-10T00:10:12.504Z,78.80
2022-09-10T00:15:12.484Z,78.65
2022-09-10T00:20:12.474Z,78.45
2022-09-10T00:25:12.880Z,78.38
2022-09-10T00:30:12.648Z,78.36
2022-09-10T00:35:12.511Z,78.25
2022-09-10T00:40:12.480Z,78.19
2022-09-10T00:45:12.443Z,78.06
2022-09-10T00:50:13.255Z,78.00
2022-09-10T00:55:14.211Z,77.98
2022-09-10T01:00:14.954Z,77.89
2022-09-10T01:05:14.457Z,77.81
2022-09-10T01:10:14.543Z,77.72
2022-09-10T01:15:15.664Z,77.77
2022-09-10T01:20:16.054Z,78.42
2022-09-10T01:25:15.757Z,78.81
2022-09-10T01:30:16.124Z,78.91
2022-09-10T01:35:17.058Z,79.46
2022-09-10T01:40:17.419Z,79.58
2022-09-10T01:45:19.403Z,79.75
2022-09-10T01:50:19.685Z,80.01
2022-09-10T01:55:22.121Z,80.11
2022-09-10T02:00:22.593Z,80.36
2022-09-10T02:05:24.997Z,80.49
2022-09-10T02:10:24.828Z,80.74
2022-09-10T02:15:26.389Z,80.90
2022-09-10T02:20:26.596Z,81.00
2022-09-10T02:25:28.520Z,81.16
2022-09-10T02:30:28.973Z,81.27
2022-09-10T02:35:28.628Z,81.27
2022-09-10T02:40:31.034Z,81.28
2022-09-10T02:45:30.664Z,81.25
2022-09-10T02:50:30.748Z,81.29
2022-09-10T02:55:31.018Z,81.28
2022-09-10T03:00:31.476Z,81.31
2022-09-10T03:05:31.775Z,81.40
2022-09-10T03:10:31.836Z,81.54
2022-09-10T03:15:31.540Z,81.87
2022-09-10T03:20:31.603Z,81.92
2022-09-10T03:25:31.753Z,82.02
2022-09-10T03:30:32.528Z,82.11
2022-09-10T03:35:34.517Z,82.14
2022-09-10T03:40:35.364Z,82.21
2022-09-10T03:45:37.365Z,82.35
2022-09-10T03:50:38.014Z,82.51
2022-09-10T03:55:37.662Z,82.59
2022-09-10T04:00:39.305Z,82.66
2022-09-10T04:05:40.179Z,82.71
2022-09-10T04:10:39.814Z,82.66
2022-09-10T04:15:39.667Z,82.86
2022-09-10T04:20:41.911Z,82.90
2022-09-10T04:25:42.300Z,82.90
2022-09-10T04:30:43.888Z,82.87
2022-09-10T04:35:45.496Z,83.01
2022-09-10T04:40:47.413Z,83.00
2022-09-10T04:45:47.761Z,83.04
2022-09-10T04:51:14.699Z,83.08
2022-09-10T04:55:52.809Z,83.09
2022-09-10T05:00:53.990Z,83.05
2022-09-10T05:05:53.918Z,82.99
2022-09-10T05:10:53.758Z,82.90
2022-09-10T05:15:54.837Z,82.68
2022-09-10T05:20:54.770Z,82.67
2022-09-10T05:25:56.720Z,82.67
2022-09-10T05:30:58.567Z,82.76
2022-09-10T05:35:59.159Z,82.79
2022-09-10T05:41:00.091Z,82.78
2022-09-10T05:45:59.852Z,82.71
2022-09-10T05:51:01.325Z,82.78
2022-09-10T05:56:02.902Z,82.80
2022-09-10T06:01:03.164Z,82.91
2022-09-10T06:06:04.570Z,82.94
2022-09-10T06:11:07.248Z,82.82
2022-09-10T06:16:07.942Z,82.57
2022-09-10T06:21:08.687Z,82.08
2022-09-10T06:26:10.644Z,82.04
2022-09-10T06:31:13.537Z,82.29
2022-09-10T06:36:14.606Z,82.51
2022-09-10T06:41:17.482Z,82.81
2022-09-10T06:47:02.915Z,82.96
2022-09-10T06:51:24.983Z,83.06
2022-09-10T06:56:25.423Z,82.86
2022-09-10T07:01:30.590Z,82.68
2022-09-10T07:06:35.008Z,82.61
2022-09-10T07:11:41.169Z,82.80
2022-09-10T07:16:41.616Z,82.59
2022-09-10T07:21:43.666Z,82.37
2022-09-10T07:26:44.521Z,82.26
2022-09-10T07:31:48.530Z,82.13
2022-09-10T07:36:49.357Z,81.75
2022-09-10T07:41:51.716Z,81.52
2022-09-10T07:46:52.811Z,81.54
2022-09-10T07:51:59.068Z,82.06
2022-09-10T07:56:56.428Z,82.44
2022-09-10T08:01:57.402Z,82.43
2022-09-10T08:06:59.435Z,82.23
2022-09-10T08:12:00.083Z,82.18
2022-09-10T08:17:00.939Z,82.75
2022-09-10T08:22:02.744Z,82.68
2022-09-10T08:27:03.671Z,81.92
2022-09-10T08:32:05.632Z,80.89
2022-09-10T08:37:07.376Z,80.15
2022-09-10T08:42:09.662Z,78.56
2022-09-10T08:47:10.144Z,76.87
2022-09-10T08:52:10.934Z,77.75
2022-09-10T08:57:11.869Z,77.22
2022-09-10T09:02:26.285Z,77.30
2022-09-10T09:07:15.698Z,76.99
2022-09-10T09:12:16.835Z,75.67
2022-09-10T09:17:17.509Z,74.36
2022-09-10T09:22:19.201Z,73.76
2022-09-10T09:27:21.561Z,74.43
2022-09-10T09:32:22.344Z,75.35
2022-09-10T09:37:22.464Z,76.35
2022-09-10T09:42:23.242Z,77.10
2022-09-10T09:47:23.556Z,77.62
2022-09-10T09:52:24.425Z,78.97
2022-09-10T09:57:23.933Z,79.89
2022-09-10T10:02:23.899Z,80.29
2022-09-10T10:07:23.850Z,79.89
2022-09-10T10:12:24.088Z,79.86
2022-09-10T10:17:23.905Z,80.21
2022-09-10T10:22:24.107Z,80.34
2022-09-10T10:27:23.943Z,81.08
2022-09-10T10:32:23.897Z,81.36
2022-09-10T10:37:24.005Z,81.43
2022-09-10T10:42:24.197Z,81.53
2022-09-10T10:47:24.048Z,81.64
2022-09-10T10:52:24.211Z,82.24
2022-09-10T10:57:24.057Z,82.63
2022-09-10T11:02:24.050Z,82.46
2022-09-10T11:07:23.945Z,82.37
2022-09-10T11:12:24.515Z,82.74
2022-09-10T11:17:23.966Z,82.78
2022-09-10T11:22:23.964Z,83.12
2022-09-10T11:27:24.089Z,83.87
2022-09-10T11:32:25.814Z,84.95
2022-09-10T11:37:26.006Z,85.20
2022-09-10T11:42:25.986Z,85.15
2022-09-10T11:47:25.988Z,84.57
2022-09-10T11:52:26.233Z,83.93
2022-09-10T11:57:26.044Z,81.91
2022-09-10T12:02:26.060Z,81.42
2022-09-10T12:07:26.154Z,82.10
2022-09-10T12:12:25.954Z,81.91
2022-09-10T12:17:26.791Z,81.45
2022-09-10T12:22:27.047Z,81.09
2022-09-10T12:27:29.019Z,79.76
2022-09-10T12:32:29.171Z,78.42
2022-09-10T12:37:28.990Z,79.25
2022-09-10T12:42:29.033Z,78.81
2022-09-10T12:47:29.086Z,77.23
2022-09-10T12:52:29.013Z,75.88
2022-09-10T12:57:29.251Z,76.20
2022-09-10T13:02:29.311Z,76.28
2022-09-10T13:07:28.976Z,76.38
2022-09-10T13:12:29.039Z,76.53
2022-09-10T13:17:29.009Z,74.37
2022-09-10T13:22:29.491Z,74.08
2022-09-10T13:27:29.099Z,74.49
2022-09-10T13:32:29.100Z,74.41
2022-09-10T13:37:30.903Z,75.02
2022-09-10T13:42:35.463Z,75.28
2022-09-10T13:47:33.032Z,76.18
2022-09-10T13:52:34.020Z,76.93
2022-09-10T13:57:34.151Z,77.67
2022-09-10T14:02:34.848Z,77.68
2022-09-10T14:07:35.378Z,77.80
2022-09-10T14:12:35.111Z,77.43
2022-09-10T14:17:35.041Z,77.03
2022-09-10T14:22:35.068Z,77.26
2022-09-10T14:27:35.266Z,76.55
2022-09-10T14:32:36.852Z,76.17
2022-09-10T14:37:37.897Z,77.30
2022-09-10T14:42:38.088Z,77.89
2022-09-10T14:47:38.150Z,78.44
2022-09-10T14:52:38.566Z,78.87
2022-09-10T14:57:38.119Z,79.34
2022-09-10T15:02:38.127Z,79.26
2022-09-10T15:07:38.217Z,78.94
2022-09-10T15:12:38.200Z,79.06
2022-09-10T15:17:38.140Z,79.50
2022-09-10T15:22:39.354Z,80.02
2022-09-10T15:27:39.309Z,80.15
2022-09-10T15:32:39.957Z,79.81
2022-09-10T15:37:40.095Z,79.56
2022-09-10T15:42:40.154Z,79.40
2022-09-10T15:47:41.510Z,79.40
2022-09-10T15:52:41.129Z,79.58
2022-09-10T15:57:41.184Z,79.95
2022-09-10T16:02:41.896Z,79.81
2022-09-10T16:07:42.167Z,79.93
2022-09-10T16:12:42.127Z,79.93
2022-09-10T16:17:42.122Z,80.02
2022-09-10T16:22:42.192Z,80.10
2022-09-10T16:27:43.417Z,80.38
2022-09-10T16:32:43.183Z,80.74
2022-09-10T16:37:43.724Z,80.91
2022-09-10T16:42:43.243Z,81.13
2022-09-10T16:47:43.226Z,81.05
2022-09-10T16:52:43.232Z,81.17
2022-09-10T16:57:43.320Z,81.44
2022-09-10T17:02:43.515Z,81.72
2022-09-10T17:07:43.273Z,81.90
2022-09-10T17:12:43.302Z,82.32
2022-09-10T17:17:43.145Z,82.42
2022-09-10T17:22:43.146Z,82.97
2022-09-10T17:27:43.282Z,82.82
2022-09-10T17:32:43.294Z,82.76
2022-09-10T17:37:43.308Z,82.92
2022-09-10T17:42:44.900Z,83.09
2022-09-10T17:47:45.251Z,83.46
2022-09-10T17:52:45.968Z,83.51
2022-09-10T17:57:46.280Z,83.58
2022-09-10T18:02:46.287Z,83.74
2022-09-10T18:07:46.799Z,83.82
2022-09-10T18:12:46.247Z,83.93
2022-09-10T18:17:50.624Z,84.06
2022-09-10T18:22:50.340Z,84.19
2022-09-10T18:27:53.996Z,84.31
2022-09-10T18:32:54.258Z,84.38
2022-09-10T18:37:56.186Z,84.45
2022-09-10T18:42:56.284Z,84.52
2022-09-10T18:47:56.235Z,84.60
2022-09-10T18:52:56.254Z,84.69
2022-09-10T18:57:57.112Z,84.82
2022-09-10T19:02:57.375Z,85.11
2022-09-10T19:07:57.236Z,85.28
2022-09-10T19:12:57.323Z,85.45
2022-09-10T19:17:57.354Z,85.59
2022-09-10T19:22:57.889Z,85.78
2022-09-10T19:27:58.419Z,85.86
2022-09-10T19:32:58.323Z,86.05
2022-09-10T19:37:59.404Z,86.17
2022-09-10T19:43:00.098Z,86.23
2022-09-10T19:48:00.314Z,86.28
2022-09-10T19:53:00.272Z,86.36
2022-09-10T19:58:01.113Z,86.41
2022-09-10T20:03:01.670Z,86.62
2022-09-10T20:08:01.376Z,86.72
2022-09-10T20:13:01.328Z,86.75
2022-09-10T20:18:01.382Z,86.80
2022-09-10T20:23:01.393Z,86.94
2022-09-10T20:28:01.478Z,87.04
2022-09-10T20:33:01.337Z,87.13
2022-09-10T20:38:01.315Z,87.20
2022-09-10T20:43:01.294Z,87.22
2022-09-10T20:48:02.409Z,87.18
2022-09-10T20:53:02.306Z,87.23
2022-09-10T20:58:02.480Z,87.31
2022-09-10T21:03:03.264Z,87.33
2022-09-10T21:08:03.330Z,87.38
2022-09-10T21:13:03.916Z,87.34
2022-09-10T21:18:03.425Z,87.36
2022-09-10T21:23:03.365Z,87.37
2022-09-10T21:28:03.426Z,87.41
2022-09-10T21:33:03.413Z,87.38
2022-09-10T21:38:03.365Z,87.36
2022-09-10T21:43:05.157Z,87.35
2022-09-10T21:48:04.772Z,87.35
2022-09-10T21:53:04.791Z,87.35
2022-09-10T21:58:04.891Z,87.37
2022-09-10T22:03:05.091Z,87.38
2022-09-10T22:08:06.705Z,87.44
2022-09-10T22:13:06.785Z,87.45
2022-09-10T22:18:07.800Z,87.53
2022-09-10T22:23:07.966Z,87.58
2022-09-10T22:28:07.859Z,87.59
2022-09-10T22:33:07.961Z,87.62
2022-09-10T22:38:09.366Z,87.61
2022-09-10T22:43:08.771Z,87.72
2022-09-10T22:48:09.282Z,87.75
2022-09-10T22:53:08.826Z,87.74
2022-09-10T22:58:09.731Z,87.75
2022-09-10T23:03:11.019Z,87.91
2022-09-10T23:08:10.865Z,87.94
2022-09-10T23:13:10.914Z,87.87
2022-09-10T23:18:10.818Z,87.89
2022-09-10T23:23:10.855Z,87.92
2022-09-10T23:28:11.384Z,87.97
2022-09-10T23:33:10.857Z,88.00
2022-09-10T23:38:10.865Z,88.12
2022-09-10T23:43:11.429Z,88.19
2022-09-10T23:48:10.954Z,88.32
2022-09-10T23:53:10.990Z,88.32
2022-09-10T23:58:10.983Z,88.34
